Upstream stations:
Downstream station:
SHEF ID: OEMO2 Okemah Hwy 56
STATION TYPE:
PRECIP STAGE RIV-FLOW VOLTAGE BAT-LOAD
in ft cfs volt volt
Ccp-Rev Ccp-Rev Ccp-Rev Ccp-Rev Ccp-Rev
(US/Central)
03/19 00:00 0.00 9.36 449 12.81 12.73
03/19 01:00 0.00 9.37 452 12.73 12.65
03/19 02:00 0.00 9.37 452 12.73 12.65
03/19 03:00 0.00 9.37 452 12.73 12.65
03/19 04:00 0.00 9.37 452 12.65 12.65
03/19 05:00 0.00 9.38 454 12.65 12.57
03/19 06:00 0.00 9.38 454 12.65 12.57
03/19 07:00 0.00 9.38 454 12.65 12.57
03/19 08:00 0.00 9.38 454 12.65 12.57
03/19 09:00 0.00 9.38 454 12.73 12.57
03/19 10:00 0.00 9.37 452 13.44 13.13
03/19 11:00 0.00 9.33 440 14.24 13.21
03/19 12:00 0.00 9.33 440 14.16 13.13
03/19 13:00 0.00 9.32 437 13.60 13.13
03/19 14:00 0.00 9.31 434 13.44 13.13
03/19 15:00 0.00 9.31 434 14.08 13.13
03/19 16:00 0.00 9.29 428 14.00 13.05
03/19 17:00 0.00 9.29 428 14.08 12.97
03/19 18:00 0.00 9.29 428 13.68 12.97
03/19 19:00 0.00 9.29 428 14.08 12.97
03/19 20:00 0.00 9.29 428 12.89 12.81
03/19 21:00 0.00 9.27 422 12.89 12.81
03/19 22:00 0.00 9.32 437 12.81 12.73
03/19 23:00 ---- ---- ---- ---- ----